createdAt,value
2017-07-27T00:00:46.667Z,6.70
2017-07-27T00:03:16.399Z,5.90
2017-07-27T00:05:46.175Z,5.40
2017-07-27T00:08:16.947Z,6.30
2017-07-27T00:10:46.280Z,6.20
2017-07-27T00:13:16.306Z,6.17
2017-07-27T00:15:46.136Z,5.97
2017-07-27T00:18:15.816Z,5.43
2017-07-27T00:20:45.245Z,5.87
2017-07-27T00:23:15.854Z,4.83
2017-07-27T00:25:47.243Z,6.07
2017-07-27T00:28:17.625Z,4.80
2017-07-27T00:30:46.427Z,6.10
2017-07-27T00:33:16.372Z,5.53
2017-07-27T00:35:46.508Z,4.90
2017-07-27T00:38:16.273Z,5.53
2017-07-27T00:40:45.704Z,4.57
2017-07-27T00:43:15.281Z,5.03
2017-07-27T00:45:45.701Z,4.97
2017-07-27T00:48:16.300Z,6.13
2017-07-27T00:50:46.155Z,6.17
2017-07-27T00:53:16.451Z,5.70
2017-07-27T00:55:47.010Z,7.27
2017-07-27T00:58:17.159Z,6.40
2017-07-27T01:00:46.208Z,5.53
2017-07-27T01:03:15.356Z,5.30
2017-07-27T01:05:45.347Z,7.37
2017-07-27T01:08:16.679Z,7.30
2017-07-27T01:10:55.047Z,7.17
2017-07-27T01:13:24.061Z,7.53
2017-07-27T01:15:52.858Z,7.97
2017-07-27T01:18:22.006Z,8.80
2017-07-27T01:20:51.764Z,9.50
2017-07-27T01:23:21.494Z,9.77
2017-07-27T01:25:53.125Z,10.00
2017-07-27T01:28:22.168Z,11.83
2017-07-27T01:30:51.164Z,12.63
2017-07-27T01:33:20.793Z,12.27
2017-07-27T01:35:50.024Z,12.67
2017-07-27T01:38:19.933Z,12.40
2017-07-27T01:40:48.567Z,11.57
2017-07-27T01:43:17.295Z,12.13
2017-07-27T01:45:47.242Z,12.60
2017-07-27T01:48:16.657Z,10.80
2017-07-27T01:50:46.569Z,11.37
2017-07-27T01:53:15.986Z,11.43
2017-07-27T01:55:46.755Z,10.97
2017-07-27T01:58:16.188Z,10.23
2017-07-27T02:00:46.340Z,11.70
2017-07-27T02:03:16.317Z,11.73
2017-07-27T02:05:45.716Z,10.47
2017-07-27T02:08:14.801Z,9.23
2017-07-27T02:10:44.319Z,10.20
2017-07-27T02:13:15.126Z,10.63
2017-07-27T02:15:45.125Z,8.10
2017-07-27T02:18:15.391Z,9.70
2017-07-27T02:20:44.982Z,8.27
2017-07-27T02:23:15.617Z,10.17
2017-07-27T02:25:45.238Z,8.77
2017-07-27T02:28:16.205Z,10.43
2017-07-27T02:30:45.717Z,9.17
2017-07-27T02:33:15.978Z,10.87
2017-07-27T02:35:45.533Z,10.27
2017-07-27T02:38:15.517Z,11.30
2017-07-27T02:40:45.034Z,10.73
2017-07-27T02:43:15.035Z,10.50
2017-07-27T02:45:44.509Z,10.60
2017-07-27T02:48:13.814Z,9.80
2017-07-27T02:50:45.257Z,10.23
2017-07-27T02:53:15.445Z,11.20
2017-07-27T02:55:45.117Z,11.07
2017-07-27T02:58:14.934Z,15.03
2017-07-27T03:00:45.165Z,16.00
2017-07-27T03:03:15.289Z,16.90
2017-07-27T03:05:46.391Z,18.60
2017-07-27T03:08:16.624Z,22.40
2017-07-27T03:10:47.400Z,21.70
2017-07-27T03:13:16.661Z,20.40
2017-07-27T03:15:46.550Z,21.07
2017-07-27T03:18:16.110Z,21.17
2017-07-27T03:20:45.212Z,21.23
2017-07-27T03:23:15.449Z,21.80
2017-07-27T03:25:46.171Z,22.67
2017-07-27T03:28:16.459Z,22.93
2017-07-27T03:30:45.834Z,25.00
2017-07-27T03:33:16.005Z,26.07
2017-07-27T03:35:45.701Z,22.43
2017-07-27T03:38:15.237Z,21.07
2017-07-27T03:40:45.073Z,20.63
2017-07-27T03:43:15.884Z,19.83
2017-07-27T03:45:46.775Z,19.77
2017-07-27T03:48:16.736Z,19.57
2017-07-27T03:50:45.980Z,18.87
2017-07-27T03:53:15.193Z,18.50
2017-07-27T03:55:45.834Z,20.70
2017-07-27T03:58:15.006Z,18.30
2017-07-27T04:00:44.594Z,17.77
2017-07-27T04:03:14.733Z,16.80
2017-07-27T04:05:45.199Z,16.33
2017-07-27T04:08:16.293Z,14.00
2017-07-27T04:10:46.263Z,12.40
2017-07-27T04:13:16.445Z,9.23
2017-07-27T04:15:46.117Z,9.40
2017-07-27T04:18:15.550Z,8.97
2017-07-27T04:20:45.869Z,9.73
2017-07-27T04:23:15.986Z,9.97
2017-07-27T04:25:46.024Z,8.47
2017-07-27T04:28:16.720Z,6.60
2017-07-27T04:30:47.206Z,6.97
2017-07-27T04:33:17.774Z,7.70
2017-07-27T04:35:46.659Z,7.17
2017-07-27T04:38:15.626Z,6.67
2017-07-27T04:40:46.497Z,4.90
2017-07-27T04:43:16.029Z,5.07
2017-07-27T04:45:46.589Z,5.33
2017-07-27T04:48:16.183Z,4.37
2017-07-27T04:50:46.433Z,4.33
2017-07-27T04:53:16.326Z,3.23
2017-07-27T04:55:48.582Z,3.97
2017-07-27T04:58:17.678Z,4.17
2017-07-27T05:00:46.209Z,3.53
2017-07-27T05:03:14.851Z,3.13
2017-07-27T05:05:44.207Z,3.00
2017-07-27T05:08:13.766Z,2.77
2017-07-27T05:10:43.205Z,2.00
2017-07-27T05:13:12.762Z,2.67
2017-07-27T05:15:43.805Z,2.77
2017-07-27T05:18:14.868Z,2.17
2017-07-27T05:20:45.742Z,2.43
2017-07-27T05:23:17.160Z,2.00
2017-07-27T05:25:46.997Z,2.00
2017-07-27T05:28:16.416Z,1.83
2017-07-27T05:30:46.095Z,1.90
2017-07-27T05:33:16.003Z,2.10
2017-07-27T05:35:45.790Z,2.20
2017-07-27T05:38:14.748Z,1.40
2017-07-27T05:40:45.405Z,1.90
2017-07-27T05:43:14.817Z,2.40
2017-07-27T05:45:44.205Z,1.90
2017-07-27T05:48:14.244Z,1.97
2017-07-27T05:50:43.894Z,2.43
2017-07-27T05:53:13.147Z,2.30
2017-07-27T05:55:44.028Z,2.20
2017-07-27T05:58:14.393Z,2.00
2017-07-27T06:00:44.053Z,1.67
2017-07-27T06:03:14.753Z,1.60
2017-07-27T06:05:45.080Z,1.80
2017-07-27T06:08:14.975Z,2.30
2017-07-27T06:10:44.078Z,1.53
2017-07-27T06:13:13.555Z,0.83
2017-07-27T06:15:43.292Z,1.23
2017-07-27T06:18:13.247Z,1.33
2017-07-27T06:20:43.154Z,1.33
2017-07-27T06:23:12.949Z,1.43
2017-07-27T06:25:43.117Z,1.40
2017-07-27T06:28:14.038Z,1.00
2017-07-27T06:30:43.584Z,1.10
2017-07-27T06:33:14.182Z,1.60
2017-07-27T06:35:43.164Z,2.83
2017-07-27T06:38:14.833Z,5.43
2017-07-27T06:40:47.195Z,4.83
2017-07-27T06:43:19.970Z,6.53
2017-07-27T06:45:49.312Z,6.70
2017-07-27T06:48:17.920Z,6.73
2017-07-27T06:50:48.458Z,7.30
2017-07-27T06:53:18.125Z,7.67
2017-07-27T06:55:46.505Z,7.80
2017-07-27T06:58:15.228Z,7.97
2017-07-27T07:00:44.796Z,7.40
2017-07-27T07:03:15.204Z,7.23
2017-07-27T07:05:43.916Z,6.77
2017-07-27T07:08:13.187Z,7.50
2017-07-27T07:10:43.161Z,8.53
2017-07-27T07:13:13.676Z,8.77
2017-07-27T07:15:43.017Z,7.97
2017-07-27T07:18:12.944Z,6.70
2017-07-27T07:20:43.113Z,7.70
2017-07-27T07:23:13.817Z,8.43
2017-07-27T07:25:44.683Z,7.90
2017-07-27T07:28:14.029Z,8.53
2017-07-27T07:30:44.449Z,9.47
2017-07-27T07:33:14.874Z,7.90
2017-07-27T07:35:45.146Z,8.50
2017-07-27T07:38:15.207Z,8.03
2017-07-27T07:40:44.509Z,7.47
2017-07-27T07:43:15.912Z,7.80
2017-07-27T07:45:45.525Z,9.07
2017-07-27T07:48:15.190Z,9.27
2017-07-27T07:50:44.971Z,8.80
2017-07-27T07:53:14.812Z,9.40
2017-07-27T07:55:44.531Z,11.40
2017-07-27T07:58:14.244Z,11.40
2017-07-27T08:00:44.569Z,10.33
2017-07-27T08:03:15.631Z,10.23
2017-07-27T08:05:46.933Z,11.63
2017-07-27T08:08:16.425Z,10.97
2017-07-27T08:10:47.745Z,11.87
2017-07-27T08:13:16.620Z,12.53
2017-07-27T08:15:46.975Z,11.17
2017-07-27T08:18:16.927Z,9.83
2017-07-27T08:20:46.247Z,9.10
2017-07-27T08:23:18.626Z,6.63
2017-07-27T08:25:48.250Z,7.80
2017-07-27T08:28:17.309Z,7.90
2017-07-27T08:30:49.657Z,8.93
2017-07-27T08:33:19.463Z,7.70
2017-07-27T08:35:48.457Z,7.30
2017-07-27T08:38:18.101Z,8.63
2017-07-27T08:40:46.598Z,7.97
2017-07-27T08:43:16.090Z,6.40
2017-07-27T08:45:45.724Z,5.67
2017-07-27T08:48:15.897Z,6.67
2017-07-27T08:50:45.252Z,6.90
2017-07-27T08:53:15.315Z,7.67
2017-07-27T08:55:45.771Z,9.07
2017-07-27T08:58:15.587Z,8.07
2017-07-27T09:00:45.604Z,10.17
2017-07-27T09:03:15.353Z,7.90
2017-07-27T09:05:45.927Z,8.40
2017-07-27T09:08:15.107Z,9.60
2017-07-27T09:10:44.551Z,7.67
2017-07-27T09:13:13.636Z,8.57
2017-07-27T09:15:44.299Z,8.57
2017-07-27T09:18:14.589Z,9.03
2017-07-27T09:20:43.761Z,9.53
2017-07-27T09:23:14.586Z,9.07
2017-07-27T09:25:43.885Z,8.63
2017-07-27T09:28:14.100Z,10.40
2017-07-27T09:30:45.134Z,11.27
2017-07-27T09:33:14.979Z,9.70
2017-07-27T09:35:44.996Z,10.70
2017-07-27T09:38:14.546Z,10.93
2017-07-27T09:40:44.931Z,12.27
2017-07-27T09:43:14.313Z,11.70
2017-07-27T09:45:43.949Z,10.57
2017-07-27T09:48:13.408Z,10.00
2017-07-27T09:50:43.679Z,10.80
2017-07-27T09:53:13.464Z,9.87
2017-07-27T09:55:43.382Z,9.27
2017-07-27T09:58:14.153Z,8.90
2017-07-27T10:00:44.700Z,8.97
2017-07-27T10:03:14.454Z,7.80
2017-07-27T10:05:45.038Z,8.20
2017-07-27T10:08:14.321Z,7.80
2017-07-27T10:10:43.530Z,7.90
2017-07-27T10:13:13.221Z,8.30
2017-07-27T10:15:42.920Z,8.23
2017-07-27T10:18:12.360Z,7.83
2017-07-27T10:20:42.852Z,9.40
2017-07-27T10:23:12.178Z,7.37
2017-07-27T10:25:42.346Z,7.40
2017-07-27T10:28:11.293Z,7.37
2017-07-27T10:30:40.974Z,6.93
2017-07-27T10:33:09.614Z,6.50
2017-07-27T10:35:38.432Z,6.40
2017-07-27T10:38:06.925Z,6.20
2017-07-27T10:40:35.441Z,6.67
2017-07-27T10:43:03.648Z,6.90
2017-07-27T10:45:31.704Z,7.30
2017-07-27T10:47:59.780Z,5.00
2017-07-27T10:50:27.874Z,4.90
2017-07-27T10:52:55.984Z,5.97
2017-07-27T10:55:25.021Z,4.80
2017-07-27T10:57:53.494Z,4.10
2017-07-27T11:00:22.581Z,5.60
2017-07-27T11:02:51.016Z,5.00
2017-07-27T11:05:19.869Z,5.03
2017-07-27T11:07:48.407Z,4.77
2017-07-27T11:10:17.090Z,5.53
2017-07-27T11:12:45.946Z,4.73
2017-07-27T11:15:15.140Z,5.63
2017-07-27T11:17:44.633Z,3.93
2017-07-27T11:20:15.069Z,3.70
2017-07-27T11:22:44.973Z,2.60
2017-07-27T11:25:15.433Z,2.90
2017-07-27T11:27:45.535Z,2.03
2017-07-27T11:30:14.843Z,2.27
2017-07-27T11:32:44.736Z,2.03
2017-07-27T11:35:14.342Z,2.27
2017-07-27T11:37:45.629Z,1.80
2017-07-27T11:40:14.946Z,1.70
2017-07-27T11:42:44.773Z,1.70
2017-07-27T11:45:13.920Z,1.50
2017-07-27T11:47:44.557Z,1.80
2017-07-27T11:50:15.016Z,2.07
2017-07-27T11:52:44.717Z,2.00
2017-07-27T11:55:14.602Z,1.70
2017-07-27T11:57:45.098Z,1.80
2017-07-27T12:00:15.316Z,1.73
2017-07-27T12:02:44.746Z,1.63
2017-07-27T12:05:14.896Z,1.50
2017-07-27T12:07:45.909Z,1.60
2017-07-27T12:10:15.796Z,1.90
2017-07-27T12:12:45.671Z,1.53
2017-07-27T12:15:14.636Z,1.70
2017-07-27T12:17:43.884Z,1.80
2017-07-27T12:20:14.061Z,1.60
2017-07-27T12:22:44.193Z,1.60
2017-07-27T12:25:14.201Z,2.17
2017-07-27T12:27:44.328Z,2.27
2017-07-27T12:30:14.044Z,3.07
2017-07-27T12:32:44.185Z,2.77
2017-07-27T12:35:13.480Z,3.83
2017-07-27T12:37:41.894Z,2.80
2017-07-27T12:40:12.601Z,2.13
2017-07-27T12:42:42.272Z,2.10
2017-07-27T12:45:12.523Z,2.03
2017-07-27T12:47:44.612Z,2.50
2017-07-27T12:50:14.337Z,2.40
2017-07-27T12:52:43.185Z,2.90
2017-07-27T12:55:12.092Z,2.13
2017-07-27T12:57:42.531Z,2.50
2017-07-27T13:00:12.800Z,2.20
2017-07-27T13:02:43.556Z,2.20
2017-07-27T13:05:13.174Z,1.77
2017-07-27T13:07:43.175Z,2.33
2017-07-27T13:10:13.550Z,1.80
2017-07-27T13:12:44.111Z,2.50
2017-07-27T13:15:13.990Z,1.50
2017-07-27T13:17:43.628Z,2.03
2017-07-27T13:20:15.042Z,2.47
2017-07-27T13:22:45.009Z,1.70
2017-07-27T13:25:15.401Z,1.50
2017-07-27T13:27:44.957Z,1.93
2017-07-27T13:30:14.367Z,1.67
2017-07-27T13:32:43.877Z,2.03
2017-07-27T13:35:13.153Z,1.97
2017-07-27T13:37:43.153Z,2.37
2017-07-27T13:40:13.525Z,2.30
2017-07-27T13:42:43.986Z,2.40
2017-07-27T13:45:14.080Z,1.83
2017-07-27T13:47:44.337Z,2.37
2017-07-27T13:50:13.927Z,2.50
2017-07-27T13:52:44.201Z,1.93
2017-07-27T13:55:15.246Z,1.70
2017-07-27T13:57:46.305Z,2.20
2017-07-27T14:00:16.454Z,2.00
2017-07-27T14:02:45.195Z,1.70
2017-07-27T14:05:14.858Z,2.00
2017-07-27T14:07:45.021Z,1.90
2017-07-27T14:10:14.365Z,2.20
2017-07-27T14:12:45.905Z,1.83
2017-07-27T14:15:16.600Z,2.20
2017-07-27T14:17:47.638Z,3.00
2017-07-27T14:20:16.897Z,2.30
2017-07-27T14:22:46.066Z,2.17
2017-07-27T14:25:16.312Z,1.97
2017-07-27T14:27:45.523Z,2.27
2017-07-27T14:30:14.937Z,2.23
2017-07-27T14:32:44.560Z,2.33
2017-07-27T14:35:15.086Z,2.87
2017-07-27T14:37:44.990Z,2.60
2017-07-27T14:40:15.720Z,2.20
2017-07-27T14:42:45.219Z,2.33
2017-07-27T14:45:15.162Z,2.00
2017-07-27T14:47:45.174Z,1.87
2017-07-27T14:50:14.626Z,2.27
2017-07-27T14:52:43.907Z,2.20
2017-07-27T14:55:13.256Z,2.00
2017-07-27T14:57:42.596Z,2.07
2017-07-27T15:00:13.672Z,1.90
2017-07-27T15:02:44.465Z,2.30
2017-07-27T15:05:15.046Z,2.20
2017-07-27T15:07:44.166Z,2.47
2017-07-27T15:10:14.506Z,2.33
2017-07-27T15:12:43.258Z,2.37
2017-07-27T15:15:14.474Z,2.13
2017-07-27T15:17:45.471Z,2.47
2017-07-27T15:20:15.905Z,2.70
2017-07-27T15:22:44.997Z,2.57
2017-07-27T15:25:14.374Z,2.57
2017-07-27T15:27:44.134Z,2.70
2017-07-27T15:30:14.086Z,2.70
2017-07-27T15:32:44.708Z,3.10
2017-07-27T15:35:14.573Z,2.67
2017-07-27T15:37:43.922Z,2.30
2017-07-27T15:40:13.274Z,1.60
2017-07-27T15:42:43.301Z,2.67
2017-07-27T15:45:13.574Z,2.50
2017-07-27T15:47:43.596Z,2.50
2017-07-27T15:50:14.495Z,2.20
2017-07-27T15:52:45.406Z,2.80
2017-07-27T15:55:16.437Z,2.73
2017-07-27T15:57:45.831Z,2.90
2017-07-27T16:00:14.981Z,3.20
2017-07-27T16:02:45.332Z,2.70
2017-07-27T16:05:15.261Z,2.33
2017-07-27T16:07:44.537Z,2.80
2017-07-27T16:10:14.287Z,2.00
2017-07-27T16:12:44.161Z,2.20
2017-07-27T16:15:13.283Z,2.23
2017-07-27T16:17:43.767Z,2.30
2017-07-27T16:20:12.850Z,2.40
2017-07-27T16:22:45.169Z,2.70
2017-07-27T16:25:14.728Z,3.67
2017-07-27T16:27:45.146Z,2.47
2017-07-27T16:30:15.761Z,2.40
2017-07-27T16:32:44.893Z,1.90
2017-07-27T16:35:16.878Z,2.30
2017-07-27T16:37:47.363Z,1.93
2017-07-27T16:40:17.886Z,1.97
2017-07-27T16:42:46.573Z,2.17
2017-07-27T16:45:16.367Z,2.10
2017-07-27T16:47:46.031Z,2.37
2017-07-27T16:50:16.481Z,1.83
2017-07-27T16:52:45.113Z,1.87
2017-07-27T16:55:15.410Z,2.40
2017-07-27T16:57:44.108Z,2.33
2017-07-27T17:00:13.253Z,2.10
2017-07-27T17:02:42.419Z,2.27
2017-07-27T17:05:11.141Z,1.43
2017-07-27T17:07:39.700Z,2.17
2017-07-27T17:10:08.336Z,2.40
2017-07-27T17:12:37.851Z,2.03
2017-07-27T17:15:06.034Z,2.07
2017-07-27T17:17:34.228Z,2.10
2017-07-27T17:20:03.159Z,1.97
2017-07-27T17:22:32.023Z,2.57
2017-07-27T17:25:00.191Z,2.23
2017-07-27T17:27:28.239Z,2.63
2017-07-27T17:29:56.291Z,2.30
2017-07-27T17:32:24.380Z,2.40
2017-07-27T17:34:53.007Z,2.60
2017-07-27T17:37:21.761Z,2.20
2017-07-27T17:39:50.722Z,2.20
2017-07-27T17:42:18.990Z,2.60
2017-07-27T17:44:48.557Z,1.47
2017-07-27T17:47:17.716Z,3.13
2017-07-27T17:49:46.296Z,2.73
2017-07-27T17:52:14.442Z,2.40
2017-07-27T17:54:48.033Z,2.60
2017-07-27T17:57:16.757Z,2.53
2017-07-27T17:59:47.445Z,2.33
2017-07-27T18:02:15.806Z,2.77
2017-07-27T18:04:46.451Z,2.00
2017-07-27T18:07:17.463Z,2.37
2017-07-27T18:09:46.572Z,3.23
2017-07-27T18:12:15.400Z,3.60
2017-07-27T18:14:44.618Z,2.93
2017-07-27T18:17:14.432Z,3.20
2017-07-27T18:19:43.166Z,2.50
2017-07-27T18:22:13.286Z,2.70
2017-07-27T18:24:42.472Z,2.60
2017-07-27T18:27:12.356Z,2.73
2017-07-27T18:29:42.193Z,2.70
2017-07-27T18:32:12.970Z,3.57
2017-07-27T18:34:43.220Z,2.70
2017-07-27T18:37:14.072Z,3.20
2017-07-27T18:39:44.631Z,4.30
2017-07-27T18:42:13.736Z,3.23
2017-07-27T18:44:44.167Z,3.33
2017-07-27T18:47:14.768Z,3.13
2017-07-27T18:49:44.743Z,3.53
2017-07-27T18:52:13.552Z,4.00
2017-07-27T18:54:44.978Z,3.10
2017-07-27T18:57:14.629Z,3.10
2017-07-27T18:59:43.957Z,2.83
2017-07-27T19:02:13.641Z,3.30
2017-07-27T19:04:44.594Z,3.60
2017-07-27T19:07:13.769Z,3.40
2017-07-27T19:09:43.804Z,3.40
2017-07-27T19:12:16.000Z,3.83
2017-07-27T19:14:46.388Z,4.60
2017-07-27T19:17:17.382Z,4.77
2017-07-27T19:19:46.251Z,4.43
2017-07-27T19:22:15.725Z,4.30
2017-07-27T19:24:44.318Z,4.70
2017-07-27T19:27:15.312Z,4.47
2017-07-27T19:29:44.612Z,5.07
2017-07-27T19:32:15.561Z,4.53
2017-07-27T19:34:45.256Z,4.57
2017-07-27T19:37:14.354Z,4.17
2017-07-27T19:39:43.396Z,4.47
2017-07-27T19:42:13.369Z,3.90
2017-07-27T19:44:42.972Z,4.50
2017-07-27T19:47:13.343Z,4.13
2017-07-27T19:49:42.230Z,5.33
2017-07-27T19:52:10.844Z,4.33
2017-07-27T19:54:40.790Z,5.10
2017-07-27T19:57:11.081Z,5.80
2017-07-27T19:59:40.564Z,5.23
2017-07-27T20:02:10.972Z,5.40
2017-07-27T20:04:40.658Z,6.07
2017-07-27T20:07:10.168Z,4.80
2017-07-27T20:09:39.251Z,5.53
2017-07-27T20:12:08.228Z,5.43
2017-07-27T20:14:36.748Z,5.60
2017-07-27T20:17:05.395Z,5.07
2017-07-27T20:19:33.829Z,6.10
2017-07-27T20:22:02.120Z,6.10
2017-07-27T20:24:30.416Z,6.80
2017-07-27T20:26:58.752Z,6.10
2017-07-27T20:29:27.044Z,6.10
2017-07-27T20:31:55.387Z,8.13
2017-07-27T20:34:24.072Z,6.30
2017-07-27T20:36:52.366Z,5.63
2017-07-27T20:39:22.405Z,6.10
2017-07-27T20:41:51.434Z,5.90
2017-07-27T20:44:21.115Z,7.03
2017-07-27T20:46:49.782Z,6.83
2017-07-27T20:49:18.887Z,6.83
2017-07-27T20:51:47.509Z,7.63
2017-07-27T20:54:17.965Z,8.27
2017-07-27T20:56:46.740Z,8.20
2017-07-27T20:59:16.596Z,7.53
2017-07-27T21:01:45.137Z,5.90
2017-07-27T21:04:16.932Z,7.60
2017-07-27T21:06:45.589Z,7.27
2017-07-27T21:09:14.588Z,8.67
2017-07-27T21:11:43.981Z,7.77
2017-07-27T21:14:14.344Z,7.70
2017-07-27T21:16:43.686Z,8.87
2017-07-27T21:19:14.431Z,8.77
2017-07-27T21:21:43.992Z,9.60
2017-07-27T21:24:14.230Z,8.90
2017-07-27T21:26:45.097Z,8.67
2017-07-27T21:29:15.922Z,8.77
2017-07-27T21:31:44.991Z,9.03
2017-07-27T21:34:13.756Z,8.83
2017-07-27T22:28:42.551Z,12.77
2017-07-27T22:31:10.857Z,13.03
2017-07-27T22:33:39.195Z,13.87
2017-07-27T22:36:07.539Z,12.63
2017-07-27T22:38:35.839Z,12.10
2017-07-27T22:41:04.140Z,13.00
2017-07-27T22:43:32.493Z,12.03
2017-07-27T22:46:00.789Z,11.90
2017-07-27T22:48:29.146Z,10.50
2017-07-27T22:50:57.435Z,10.07
2017-07-27T22:53:25.884Z,10.60
2017-07-27T22:55:54.181Z,9.20
2017-07-27T22:58:22.477Z,9.83
2017-07-27T23:00:50.827Z,11.37
2017-07-27T23:03:19.172Z,10.20
2017-07-27T23:05:47.514Z,11.00
2017-07-27T23:08:15.830Z,11.43
2017-07-27T23:10:44.172Z,9.80
2017-07-27T23:13:12.470Z,11.10
2017-07-27T23:15:40.759Z,8.77
2017-07-27T23:18:09.278Z,8.97
2017-07-27T23:20:37.571Z,9.50
2017-07-27T23:23:05.873Z,9.03
2017-07-27T23:25:34.215Z,10.20
2017-07-27T23:28:02.520Z,10.67
2017-07-27T23:30:30.859Z,10.93
2017-07-27T23:32:59.196Z,9.63
2017-07-27T23:35:27.495Z,10.23
2017-07-27T23:37:55.967Z,9.57
2017-07-27T23:40:24.259Z,9.93
2017-07-27T23:42:52.561Z,10.37
2017-07-27T23:45:20.900Z,11.10
2017-07-27T23:47:49.224Z,9.13
2017-07-27T23:50:17.559Z,10.80
2017-07-27T23:52:45.863Z,9.83
2017-07-27T23:55:14.204Z,11.07
2017-07-27T23:57:42.491Z,13.03
